Time;durP1;ratioP1;P1;durP2;ratioP2;P2;SDS_P1;SDS_P2;PMS_P1;PMS_P2;Temp;Humidity;BMP_temperature;BMP_pressure;BME280_temperature;BME280_humidity;BME280_pressure;Samples;Min_cycle;Max_cycle;Signal;HPM_P1;HPM_P2
2023/07/03 06:33:03;;;;;;;17.90;5.23;;;23.20;72.40;;;;;;4907314;29;20504;-90
2023/07/03 06:35:30;;;;;;;14.40;4.60;;;23.20;72.50;;;;;;4883790;29;20436;-96
2023/07/03 06:37:58;;;;;;;9.83;4.07;;;23.20;72.80;;;;;;4885363;29;20530;-95
2023/07/03 06:40:26;;;;;;;11.30;5.10;;;23.20;72.50;;;;;;4901064;29;20559;-90
2023/07/03 06:42:53;;;;;;;15.47;5.13;;;23.20;72.50;;;;;;4895856;29;20474;-91
2023/07/03 06:45:20;;;;;;;8.70;4.03;;;23.30;72.30;;;;;;4895885;29;20987;-92
2023/07/03 06:47:47;;;;;;;13.60;5.27;;;23.30;72.20;;;;;;4896541;29;20475;-89
2023/07/03 06:50:32;;;;;;;12.63;4.63;;;23.30;72.30;;;;;;4896295;29;20506;-93
2023/07/03 06:52:59;;;;;;;10.77;4.20;;;23.30;72.40;;;;;;4896835;29;20514;-93
2023/07/03 06:55:26;;;;;;;13.83;4.60;;;23.20;72.30;;;;;;4896831;29;20476;-93
2023/07/03 06:57:54;;;;;;;16.63;5.27;;;23.20;72.40;;;;;;4898907;29;20479;-91
2023/07/03 07:00:22;;;;;;;11.20;4.60;;;23.30;72.60;;;;;;4896807;29;20473;-91
2023/07/03 07:02:50;;;;;;;10.03;4.33;;;23.30;72.80;;;;;;4897053;29;20528;-92
2023/07/03 07:05:19;;;;;;;12.13;4.83;;;23.30;72.60;;;;;;4898046;29;20510;-93
2023/07/03 07:07:55;;;;;;;12.77;4.60;;;23.40;72.70;;;;;;4897927;29;20479;-94
2023/07/03 07:10:26;;;;;;;13.27;4.50;;;23.40;72.80;;;;;;4898116;29;20447;-94
2023/07/03 07:12:55;;;;;;;11.13;4.00;;;23.40;72.80;;;;;;4897771;29;20504;-94
2023/07/03 07:15:23;;;;;;;10.03;4.17;;;23.40;72.80;;;;;;4898155;29;20455;-94
2023/07/03 07:20:37;;;;;;;8.17;3.63;;;23.50;73.70;;;;;;4896245;29;20458;-95
2023/07/03 07:23:06;;;;;;;6.80;3.60;;;23.50;72.80;;;;;;4883138;29;20805;-95
2023/07/03 07:25:33;;;;;;;8.83;3.30;;;23.60;72.80;;;;;;4869736;29;20490;-93
2023/07/03 07:28:00;;;;;;;10.97;3.83;;;23.60;72.80;;;;;;4882290;29;20469;-94
2023/07/03 07:30:27;;;;;;;8.70;3.27;;;23.60;72.80;;;;;;4882533;29;20572;-93
2023/07/03 07:32:54;;;;;;;8.07;3.30;;;23.60;72.80;;;;;;4882248;29;20550;-93
2023/07/03 07:35:22;;;;;;;8.80;3.70;;;23.50;72.60;;;;;;4882420;29;20577;-94
2023/07/03 07:37:49;;;;;;;8.47;3.83;;;23.70;72.80;;;;;;4882379;29;20594;-94
2023/07/03 07:40:20;;;;;;;9.57;3.80;;;23.70;72.70;;;;;;4882626;29;20859;-93
2023/07/03 07:42:47;;;;;;;12.17;3.83;;;23.70;72.70;;;;;;4882494;29;20529;-95
2023/07/03 07:45:14;;;;;;;5.77;2.97;;;23.70;72.60;;;;;;4882692;29;20501;-94
2023/07/03 07:47:41;;;;;;;7.47;4.17;;;23.70;72.50;;;;;;4882652;29;20484;-93
2023/07/03 07:53:35;;;;;;;14.73;3.70;;;23.90;72.00;;;;;;4960096;29;20411;-92
2023/07/03 07:56:04;;;;;;;6.70;3.37;;;23.60;72.20;;;;;;4966526;29;20444;-94
2023/07/03 07:58:31;;;;;;;6.90;3.10;;;23.80;72.60;;;;;;4961337;28;20450;-92
2023/07/03 08:00:57;;;;;;;13.17;4.00;;;23.80;72.60;;;;;;4977212;28;20485;-91
2023/07/03 08:03:25;;;;;;;9.23;3.60;;;23.80;72.10;;;;;;4976837;28;20454;-92
2023/07/03 08:05:57;;;;;;;9.73;3.20;;;23.80;72.20;;;;;;4976155;28;20517;-93
2023/07/03 08:08:26;;;;;;;8.00;4.27;;;23.80;72.30;;;;;;4977458;28;20459;-94
2023/07/03 08:10:54;;;;;;;8.83;3.23;;;23.80;72.40;;;;;;4977118;28;20546;-93
2023/07/03 08:13:34;;;;;;;14.80;4.53;;;23.90;72.60;;;;;;4978382;28;20547;-93
2023/07/03 08:16:01;;;;;;;12.83;4.00;;;23.90;72.80;;;;;;4976186;28;20429;-93
2023/07/03 08:18:31;;;;;;;10.93;3.33;;;23.90;72.80;;;;;;4977149;28;20961;-94
2023/07/03 08:20:58;;;;;;;7.20;3.40;;;23.90;72.90;;;;;;4977600;28;20505;-93
2023/07/03 08:23:36;;;;;;;7.20;3.67;;;23.90;73.00;;;;;;4976533;28;20526;-93
2023/07/03 08:29:26;;;;;;;10.27;3.33;;;23.90;73.20;;;;;;4976379;28;20477;-94
2023/07/03 08:41:28;;;;;;;7.37;3.13;;;23.90;73.10;;;;;;4991056;23;20488;-95
2023/07/03 08:44:35;;;;;;;6.17;3.23;;;23.90;73.20;;;;;;4918477;29;20264;-94
2023/07/03 08:50:34;;;;;;;5.70;2.50;;;23.90;73.20;;;;;;4952939;29;20544;-95
2023/07/03 08:53:16;;;;;;;4.30;2.43;;;23.90;73.20;;;;;;4957281;29;20502;-96
2023/07/03 08:58:47;;;;;;;5.93;3.17;;;23.90;73.30;;;;;;4953764;29;20464;-94
2023/07/03 09:01:24;;;;;;;4.50;2.87;;;23.90;73.40;;;;;;4957026;29;20535;-95
2023/07/03 09:07:08;;;;;;;4.13;2.77;;;23.90;73.40;;;;;;5001823;23;20581;-95
2023/07/03 09:09:44;;;;;;;4.30;2.87;;;23.90;73.30;;;;;;4977096;28;20439;-96
2023/07/03 09:12:28;;;;;;;4.67;2.93;;;23.90;73.40;;;;;;4976373;28;20942;-96
2023/07/03 09:15:09;;;;;;;3.67;2.47;;;23.90;73.40;;;;;;4976782;28;20451;-96
2023/07/03 09:17:52;;;;;;;4.47;2.83;;;23.90;73.40;;;;;;4978403;28;20864;-95
2023/07/03 09:23:50;;;;;;;4.50;2.47;;;23.90;73.30;;;;;;4985544;28;20535;-93
2023/07/03 09:29:16;;;;;;;4.27;2.33;;;23.90;73.30;;;;;;4988919;28;20456;-93
2023/07/03 09:31:47;;;;;;;5.43;2.70;;;23.90;73.20;;;;;;4987496;28;20493;-94
2023/07/03 09:39:52;;;;;;;4.27;2.33;;;23.90;73.20;;;;;;4988315;28;20430;-94
2023/07/03 09:45:12;;;;;;;6.10;2.50;;;23.90;73.20;;;;;;4988272;28;20441;-92
2023/07/03 09:47:57;;;;;;;3.10;2.17;;;23.80;72.90;;;;;;4976428;28;21032;-95
2023/07/03 14:10:14;;;;;;;7.93;3.17;;;24.30;75.00;;;;;;5124419;23;20486;-92
2023/07/03 14:12:41;;;;;;;3.73;2.67;;;24.20;74.70;;;;;;5001109;28;20439;-94
2023/07/03 14:15:17;;;;;;;3.53;2.30;;;24.20;74.60;;;;;;5003161;28;20454;-92
2023/07/03 14:17:44;;;;;;;5.50;2.87;;;24.20;74.60;;;;;;4999676;28;20426;-90
2023/07/03 14:20:14;;;;;;;5.13;2.73;;;24.20;74.50;;;;;;5001132;28;20453;-93
2023/07/03 14:22:42;;;;;;;5.57;2.77;;;24.40;74.70;;;;;;5000726;28;20481;-94
2023/07/03 14:25:17;;;;;;;3.53;2.53;;;24.20;74.30;;;;;;5000967;28;20453;-92
2023/07/03 14:27:50;;;;;;;3.73;2.60;;;24.20;74.40;;;;;;4999745;28;20493;-91
2023/07/03 14:30:35;;;;;;;3.63;1.87;;;24.20;74.40;;;;;;5000682;28;20485;-93
2023/07/03 14:33:06;;;;;;;3.40;2.00;;;24.20;74.30;;;;;;5000821;28;20451;-95
2023/07/03 14:36:15;;;;;;;7.63;2.43;;;24.20;74.20;;;;;;5001844;28;20447;-94
2023/07/03 14:39:07;;;;;;;3.73;2.67;;;24.40;74.40;;;;;;5222751;23;20500;-93
2023/07/03 14:42:02;;;;;;;6.80;3.07;;;24.30;74.40;;;;;;4904915;29;20445;-92
2023/07/03 14:45:35;;;;;;;5.00;2.00;;;24.30;74.50;;;;;;4904136;29;20476;-94
2023/07/03 14:48:02;;;;;;;4.00;2.23;;;24.30;74.00;;;;;;4813076;29;20490;-92
2023/07/03 14:50:29;;;;;;;3.40;2.20;;;24.40;74.30;;;;;;4827602;29;20490;-91
2023/07/03 14:53:03;;;;;;;4.37;2.90;;;24.30;74.30;;;;;;4879025;29;20501;-96
2023/07/03 14:55:48;;;;;;;5.97;2.83;;;24.30;74.30;;;;;;4909671;29;20516;-96
2023/07/03 14:58:19;;;;;;;3.67;2.37;;;24.30;74.30;;;;;;4904555;29;20472;-95
2023/07/03 15:00:46;;;;;;;4.17;2.90;;;24.30;74.20;;;;;;4905434;29;20462;-95
2023/07/03 15:03:13;;;;;;;4.03;2.53;;;24.30;74.00;;;;;;4903629;29;20936;-92
2023/07/03 15:05:41;;;;;;;2.70;2.30;;;24.30;73.60;;;;;;4903081;29;20464;-95
2023/07/03 15:11:25;;;;;;;6.10;2.80;;;24.30;73.70;;;;;;5336609;23;21393;-95
2023/07/03 15:17:02;;;;;;;2.87;2.23;;;24.30;73.80;;;;;;5812777;23;20828;-96
2023/07/03 15:19:29;;;;;;;2.60;1.93;;;24.30;73.80;;;;;;4974269;29;20446;-94
2023/07/03 15:21:56;;;;;;;3.80;2.30;;;24.30;73.90;;;;;;4973196;28;20454;-93
2023/07/03 15:24:24;;;;;;;3.67;2.07;;;24.30;73.80;;;;;;4970924;29;20446;-93
2023/07/03 15:26:51;;;;;;;4.90;2.60;;;24.30;73.80;;;;;;4959238;29;20485;-91
2023/07/03 15:29:18;;;;;;;3.30;2.30;;;24.30;73.80;;;;;;4959238;29;20460;-89
2023/07/03 15:31:44;;;;;;;4.00;2.93;;;24.30;73.80;;;;;;4957724;29;21021;-92
2023/07/03 15:34:14;;;;;;;4.37;2.40;;;24.30;73.80;;;;;;4959858;28;20970;-96
2023/07/03 15:36:42;;;;;;;6.27;2.50;;;24.30;73.80;;;;;;4963664;28;20461;-95
2023/07/03 15:39:09;;;;;;;2.93;2.37;;;24.30;73.80;;;;;;5176931;23;20552;-90
2023/07/03 15:46:56;;;;;;;2.90;2.00;;;24.30;73.60;;;;;;4984613;23;20546;-96
2023/07/03 15:49:53;;;;;;;4.83;2.10;;;24.50;73.90;;;;;;4984164;28;20516;-93
2023/07/03 15:52:38;;;;;;;3.70;2.20;;;24.30;73.70;;;;;;4979347;28;20452;-94
2023/07/03 15:55:06;;;;;;;2.73;1.90;;;24.30;73.60;;;;;;4980090;28;21006;-96
2023/07/03 15:57:32;;;;;;;2.90;2.10;;;24.30;73.70;;;;;;4982465;28;20487;-90
2023/07/03 15:59:59;;;;;;;2.70;2.00;;;24.30;73.70;;;;;;4977121;28;20451;-93
2023/07/03 16:02:26;;;;;;;3.10;2.20;;;24.30;73.70;;;;;;4976808;28;20487;-91
2023/07/03 16:04:54;;;;;;;2.93;2.30;;;24.30;73.70;;;;;;4976479;28;20453;-92
2023/07/03 16:07:21;;;;;;;2.13;1.93;;;24.30;73.60;;;;;;4976455;28;20516;-93
2023/07/03 16:09:48;;;;;;;3.33;2.20;;;24.30;73.60;;;;;;4976325;28;20546;-89
2023/07/03 16:12:15;;;;;;;3.67;2.60;;;24.30;73.70;;;;;;4979176;28;20872;-93
2023/07/03 16:14:48;;;;;;;3.53;2.33;;;24.30;73.70;;;;;;4980039;28;20457;-95
2023/07/03 16:17:22;;;;;;;2.80;2.07;;;24.30;73.70;;;;;;4983190;28;20461;-90
2023/07/03 16:20:12;;;;;;;2.63;2.20;;;24.30;73.70;;;;;;4982719;28;20414;-93
2023/07/03 16:22:39;;;;;;;4.20;2.07;;;24.50;74.00;;;;;;4985008;28;20476;-92
2023/07/03 16:25:18;;;;;;;2.37;2.10;;;24.50;73.90;;;;;;4977665;28;20455;-93
2023/07/03 16:27:46;;;;;;;4.53;2.30;;;24.30;73.60;;;;;;4961293;28;20497;-92
2023/07/03 16:33:04;;;;;;;2.97;2.70;;;24.30;73.80;;;;;;5037223;23;20610;-91
2023/07/03 16:39:30;;;;;;;5.97;2.70;;;24.20;73.70;;;;;;4994444;23;20498;-92
2023/07/03 16:41:58;;;;;;;3.03;2.10;;;24.30;73.70;;;;;;5012257;23;20534;-92
2023/07/03 16:44:25;;;;;;;4.30;2.97;;;24.30;73.80;;;;;;4988757;28;20468;-93
2023/07/03 16:46:53;;;;;;;3.90;2.30;;;24.30;73.30;;;;;;4988257;28;20484;-93
2023/07/03 16:49:26;;;;;;;5.40;3.07;;;24.30;73.00;;;;;;4989495;28;20461;-93
2023/07/03 16:51:53;;;;;;;4.53;2.70;;;24.30;72.90;;;;;;4987826;28;20471;-93
2023/07/03 16:54:20;;;;;;;3.10;2.53;;;24.30;73.40;;;;;;4990283;28;20421;-93
2023/07/03 16:56:50;;;;;;;4.43;3.30;;;24.30;72.60;;;;;;4988307;28;20448;-93
2023/07/03 16:59:38;;;;;;;4.23;3.70;;;24.30;72.60;;;;;;4989413;28;20453;-93
2023/07/03 17:02:08;;;;;;;15.07;3.83;;;24.30;71.40;;;;;;4985454;28;20476;-93
2023/07/03 17:04:38;;;;;;;5.53;3.43;;;24.30;69.50;;;;;;4985320;28;20464;-93
2023/07/03 17:07:05;;;;;;;6.40;4.00;;;24.30;69.90;;;;;;4988972;28;20472;-93
2023/07/03 17:09:33;;;;;;;5.07;3.57;;;24.30;70.90;;;;;;4988104;28;20436;-93
2023/07/03 17:12:02;;;;;;;7.90;4.57;;;24.30;70.00;;;;;;4988655;28;20511;-93
2023/07/03 17:14:34;;;;;;;9.93;4.00;;;24.30;68.20;;;;;;4968619;28;20465;-91
2023/07/03 17:17:01;;;;;;;11.80;4.53;;;24.30;69.20;;;;;;4969883;28;20451;-95
2023/07/03 17:19:28;;;;;;;7.50;4.50;;;24.30;69.90;;;;;;4978367;28;20496;-88
2023/07/03 17:21:54;;;;;;;11.87;4.60;;;24.30;69.00;;;;;;4974845;28;20482;-88
2023/07/03 17:24:21;;;;;;;10.00;4.90;;;24.30;68.60;;;;;;4971307;28;20465;-88
2023/07/03 17:26:48;;;;;;;11.67;4.70;;;24.30;69.00;;;;;;4974443;28;21008;-89
2023/07/03 17:29:16;;;;;;;7.67;4.60;;;24.30;67.40;;;;;;4974608;28;20452;-87
2023/07/03 17:31:43;;;;;;;8.40;4.33;;;24.30;67.40;;;;;;4974688;28;20479;-87
2023/07/03 17:34:10;;;;;;;7.70;4.87;;;24.30;66.30;;;;;;4974883;28;20445;-87
2023/07/03 17:36:37;;;;;;;7.00;4.10;;;24.20;65.80;;;;;;4974236;28;20544;-88
2023/07/03 17:39:04;;;;;;;10.07;5.17;;;24.30;65.70;;;;;;4968301;28;20441;-89
2023/07/03 17:41:31;;;;;;;7.13;4.43;;;24.30;66.10;;;;;;4966625;28;20927;-89
2023/07/03 17:43:58;;;;;;;8.13;4.83;;;24.20;66.10;;;;;;4994911;28;20528;-87
2023/07/03 17:46:26;;;;;;;8.10;3.90;;;24.30;66.80;;;;;;4999573;28;20475;-87
2023/07/03 17:48:54;;;;;;;9.30;5.30;;;24.30;67.50;;;;;;4998995;28;20850;-87
2023/07/03 17:51:22;;;;;;;8.50;5.00;;;24.30;68.20;;;;;;4999130;28;20452;-86
2023/07/03 17:53:49;;;;;;;11.70;5.80;;;24.30;68.90;;;;;;4989397;28;20800;-85
2023/07/03 17:56:15;;;;;;;10.20;5.07;;;24.30;69.30;;;;;;4981330;28;20471;-86
2023/07/03 17:58:43;;;;;;;8.27;4.30;;;24.30;69.80;;;;;;4982622;28;20464;-86
2023/07/03 18:01:10;;;;;;;11.40;5.10;;;24.30;69.90;;;;;;4983520;28;20452;-88
2023/07/03 18:03:39;;;;;;;10.10;5.10;;;24.30;70.10;;;;;;4981679;28;20447;-86
2023/07/03 18:06:07;;;;;;;8.57;4.57;;;24.30;70.30;;;;;;4979036;28;20471;-85
2023/07/03 18:08:34;;;;;;;5.33;3.77;;;24.30;70.30;;;;;;4981142;28;20851;-89
2023/07/03 18:11:04;;;;;;;6.20;3.50;;;24.30;70.40;;;;;;4995748;28;20462;-87
2023/07/03 18:13:34;;;;;;;8.10;4.30;;;24.30;70.60;;;;;;4995189;28;20447;-86
2023/07/03 18:16:01;;;;;;;7.20;3.73;;;24.20;70.60;;;;;;4978043;28;20460;-86
2023/07/03 18:18:28;;;;;;;6.63;3.50;;;24.30;70.60;;;;;;4990472;28;20462;-86
2023/07/03 18:20:56;;;;;;;5.33;3.77;;;24.30;70.60;;;;;;4997556;28;20818;-88
2023/07/03 18:23:23;;;;;;;10.37;3.90;;;24.40;70.60;;;;;;5001940;28;20537;-89
2023/07/03 18:25:50;;;;;;;11.70;3.60;;;24.30;70.60;;;;;;4998029;28;20552;-88
2023/07/03 18:28:17;;;;;;;10.07;4.10;;;24.30;70.80;;;;;;4997213;28;20565;-89
2023/07/03 18:30:45;;;;;;;5.17;3.33;;;24.40;70.90;;;;;;4997264;28;20943;-88
2023/07/03 18:33:11;;;;;;;7.67;4.40;;;24.30;70.80;;;;;;4997384;28;20455;-88
2023/07/03 18:35:38;;;;;;;5.13;3.57;;;24.30;70.90;;;;;;4997411;28;20490;-88
2023/07/03 18:38:06;;;;;;;4.10;2.93;;;24.30;70.90;;;;;;4997010;28;20482;-89
2023/07/03 18:40:33;;;;;;;4.70;3.80;;;24.30;71.10;;;;;;4997399;28;20451;-86
2023/07/03 18:43:00;;;;;;;5.37;3.50;;;24.30;71.10;;;;;;4996960;28;20914;-88
2023/07/03 18:45:27;;;;;;;8.87;3.60;;;24.30;71.00;;;;;;4996771;28;20440;-85
2023/07/03 18:47:53;;;;;;;5.97;3.50;;;24.30;71.10;;;;;;4997037;28;20847;-88
2023/07/03 18:50:20;;;;;;;8.23;4.30;;;24.30;71.30;;;;;;4996907;28;20447;-89
2023/07/03 18:52:48;;;;;;;4.97;3.77;;;24.30;71.30;;;;;;4996942;28;20458;-87
2023/07/03 18:55:17;;;;;;;7.00;3.43;;;24.30;71.40;;;;;;4995765;28;20449;-87
2023/07/03 18:57:44;;;;;;;6.10;4.10;;;24.30;71.30;;;;;;4997140;28;20877;-86
2023/07/03 19:00:12;;;;;;;4.47;3.30;;;24.30;70.60;;;;;;4996755;28;20863;-86
2023/07/03 19:02:39;;;;;;;10.50;3.53;;;24.30;71.00;;;;;;4996785;28;20467;-87
2023/07/03 19:05:06;;;;;;;3.70;3.40;;;24.30;71.20;;;;;;4996646;28;20448;-87
2023/07/03 19:07:33;;;;;;;3.60;3.30;;;24.30;71.20;;;;;;4996734;28;20486;-87
2023/07/03 19:10:00;;;;;;;4.37;3.50;;;24.30;71.30;;;;;;4996449;28;20444;-87
2023/07/03 19:12:28;;;;;;;8.30;3.50;;;24.30;71.50;;;;;;4996352;28;20542;-87
2023/07/03 19:14:55;;;;;;;4.03;3.60;;;24.30;71.40;;;;;;4996173;28;20450;-88
2023/07/03 19:17:22;;;;;;;5.53;2.90;;;24.30;71.50;;;;;;4996385;28;20974;-87
2023/07/03 19:19:49;;;;;;;5.17;3.40;;;24.30;71.50;;;;;;4996020;28;20445;-85
2023/07/03 19:22:16;;;;;;;4.80;2.70;;;24.30;71.50;;;;;;4996432;28;20448;-85
2023/07/03 19:24:43;;;;;;;5.63;3.40;;;24.30;71.50;;;;;;4996691;28;20468;-84
2023/07/03 19:27:11;;;;;;;6.70;3.90;;;24.30;71.40;;;;;;4996836;28;20443;-86
2023/07/03 19:29:39;;;;;;;6.27;3.87;;;24.30;71.50;;;;;;4996142;28;20485;-87
2023/07/03 19:32:06;;;;;;;3.50;3.10;;;24.30;71.60;;;;;;4995870;28;21017;-88
2023/07/03 19:34:35;;;;;;;8.03;4.27;;;24.30;71.50;;;;;;4995745;28;20452;-89
2023/07/03 19:37:02;;;;;;;5.03;3.50;;;24.30;71.40;;;;;;4996108;28;21055;-90
2023/07/03 19:39:29;;;;;;;4.23;3.37;;;24.30;71.40;;;;;;4996680;28;20458;-88
2023/07/03 19:41:56;;;;;;;3.70;2.83;;;24.30;71.60;;;;;;4996007;28;20455;-88
2023/07/03 19:44:23;;;;;;;6.40;4.00;;;24.30;71.50;;;;;;4995589;28;20436;-85
2023/07/03 19:46:51;;;;;;;5.53;3.43;;;24.30;71.40;;;;;;4998891;28;20453;-87
2023/07/03 19:49:18;;;;;;;6.73;4.00;;;24.30;70.50;;;;;;5004549;28;20579;-87
2023/07/03 19:51:45;;;;;;;5.10;3.23;;;24.30;71.30;;;;;;4989733;28;20451;-87
2023/07/03 19:54:11;;;;;;;4.43;2.70;;;24.30;71.30;;;;;;4983158;28;20528;-86
2023/07/03 19:56:38;;;;;;;3.63;3.17;;;24.20;71.40;;;;;;4976202;28;20484;-87
2023/07/03 19:59:06;;;;;;;2.83;2.50;;;24.30;71.40;;;;;;4976365;28;20443;-87
2023/07/03 20:01:32;;;;;;;6.00;4.30;;;24.30;71.60;;;;;;4975747;28;20462;-87
2023/07/03 20:04:01;;;;;;;4.77;2.90;;;24.30;71.50;;;;;;4990790;28;20804;-87
2023/07/03 20:06:28;;;;;;;6.20;3.20;;;24.30;71.50;;;;;;4994938;28;20831;-87
2023/07/03 20:08:54;;;;;;;6.53;3.43;;;24.30;71.60;;;;;;4995116;28;20498;-86
2023/07/03 20:11:22;;;;;;;3.60;3.10;;;24.30;71.60;;;;;;4995144;28;20546;-86
2023/07/03 20:13:50;;;;;;;8.20;3.30;;;24.20;71.50;;;;;;4995029;28;20488;-86
2023/07/03 20:16:18;;;;;;;2.93;2.63;;;24.30;71.60;;;;;;4994488;28;20482;-86
2023/07/03 20:18:49;;;;;;;4.17;3.00;;;24.30;71.70;;;;;;4995354;28;20518;-86
2023/07/03 20:21:17;;;;;;;4.80;2.80;;;24.30;71.70;;;;;;4995217;28;20446;-86
2023/07/03 20:23:45;;;;;;;3.53;3.23;;;24.30;71.60;;;;;;4996906;28;20539;-88
2023/07/03 20:26:12;;;;;;;5.90;3.37;;;24.30;71.70;;;;;;5000743;28;20524;-88
2023/07/03 20:28:39;;;;;;;3.77;2.87;;;24.30;71.50;;;;;;4995352;28;20488;-88
2023/07/03 20:31:08;;;;;;;3.17;2.90;;;24.30;71.50;;;;;;4995935;28;20458;-88
2023/07/03 20:33:35;;;;;;;5.37;2.87;;;24.30;71.50;;;;;;4996374;28;20451;-87
2023/07/03 20:36:04;;;;;;;3.70;3.40;;;24.30;71.70;;;;;;5007229;28;20525;-87
2023/07/03 20:38:33;;;;;;;3.93;3.30;;;24.30;71.70;;;;;;5012062;28;20484;-88
2023/07/03 20:41:01;;;;;;;6.37;3.17;;;24.30;71.70;;;;;;4995560;28;20439;-90
2023/07/03 20:43:28;;;;;;;4.63;3.20;;;24.30;71.70;;;;;;4994758;28;20990;-85
2023/07/03 20:45:59;;;;;;;6.73;3.10;;;24.30;71.70;;;;;;5005345;28;20444;-89
2023/07/03 20:48:26;;;;;;;3.50;3.00;;;24.30;71.70;;;;;;4997155;28;20495;-87
2023/07/03 20:50:58;;;;;;;3.70;2.80;;;24.30;71.60;;;;;;4994926;28;20483;-88
2023/07/03 20:53:39;;;;;;;5.90;3.30;;;24.30;71.60;;;;;;4998970;28;20816;-89
2023/07/03 20:56:09;;;;;;;7.13;3.20;;;24.30;71.20;;;;;;5000643;28;20817;-91
2023/07/03 20:58:37;;;;;;;5.13;3.43;;;24.30;71.50;;;;;;5000136;28;20486;-90
2023/07/03 21:01:12;;;;;;;4.97;3.00;;;24.30;71.50;;;;;;5000205;28;20465;-91
2023/07/03 21:03:38;;;;;;;3.77;2.87;;;24.30;71.60;;;;;;5001636;28;20539;-87
2023/07/03 21:06:10;;;;;;;4.23;3.10;;;24.30;71.80;;;;;;4998846;28;20448;-89
2023/07/03 21:08:38;;;;;;;3.00;2.63;;;24.30;71.80;;;;;;5000843;28;20477;-89
2023/07/03 21:11:11;;;;;;;5.23;2.73;;;24.30;71.70;;;;;;5011575;28;20447;-87
2023/07/03 21:13:39;;;;;;;5.97;3.20;;;24.30;71.30;;;;;;5007107;28;20502;-86
2023/07/03 21:16:11;;;;;;;5.87;3.30;;;24.30;71.50;;;;;;5006321;28;20426;-90
2023/07/03 21:18:38;;;;;;;6.07;2.60;;;24.30;71.50;;;;;;5011897;28;20447;-89
2023/07/03 21:21:16;;;;;;;4.07;3.30;;;24.30;71.80;;;;;;5006540;28;20433;-84
2023/07/03 21:23:45;;;;;;;5.10;3.70;;;24.40;71.90;;;;;;5003732;28;20481;-88
2023/07/03 21:26:15;;;;;;;4.13;2.87;;;24.40;72.00;;;;;;5006209;28;20449;-86
2023/07/03 21:28:41;;;;;;;5.17;3.13;;;24.40;71.80;;;;;;5012810;28;20553;-88
2023/07/03 21:31:12;;;;;;;5.40;2.30;;;24.40;71.90;;;;;;5016720;28;20520;-90
2023/07/03 21:33:40;;;;;;;7.20;3.27;;;24.30;71.70;;;;;;5016982;28;20461;-86
2023/07/03 21:36:08;;;;;;;3.87;2.93;;;24.30;71.80;;;;;;5017105;28;20448;-88
2023/07/03 21:38:35;;;;;;;3.93;2.80;;;24.30;71.70;;;;;;5016664;28;20479;-87
2023/07/03 21:41:03;;;;;;;3.37;2.77;;;24.30;71.70;;;;;;5017050;28;20440;-87
2023/07/03 21:43:31;;;;;;;2.97;2.67;;;24.30;71.70;;;;;;5017143;28;20494;-88
2023/07/03 21:46:02;;;;;;;5.70;2.50;;;24.30;71.80;;;;;;5016378;28;20425;-84
2023/07/03 21:48:30;;;;;;;4.30;3.20;;;24.30;71.70;;;;;;5017500;28;20536;-85
2023/07/03 21:50:57;;;;;;;3.57;2.73;;;24.30;71.70;;;;;;5011136;28;20498;-88
2023/07/03 21:53:24;;;;;;;2.97;2.67;;;24.30;71.80;;;;;;4995077;28;20454;-88
2023/07/03 21:55:51;;;;;;;5.10;2.77;;;24.30;71.80;;;;;;4994776;28;20457;-88
2023/07/03 21:58:18;;;;;;;3.77;3.00;;;24.30;72.70;;;;;;4994367;28;20530;-87
2023/07/03 22:00:47;;;;;;;2.90;2.50;;;24.30;71.70;;;;;;4994125;28;20447;-88
2023/07/03 22:03:14;;;;;;;2.87;2.60;;;24.30;72.20;;;;;;4994380;28;20457;-88
2023/07/03 22:05:41;;;;;;;2.70;1.97;;;24.40;71.90;;;;;;4993992;28;20479;-88
2023/07/03 22:08:08;;;;;;;3.23;2.60;;;24.30;71.90;;;;;;4994859;28;20490;-88
2023/07/03 22:10:35;;;;;;;3.73;2.70;;;24.30;71.80;;;;;;4994941;28;20449;-88
2023/07/03 22:13:02;;;;;;;4.13;2.43;;;24.30;71.80;;;;;;4994928;28;20823;-87
2023/07/03 22:15:29;;;;;;;5.53;2.67;;;24.30;71.90;;;;;;4994078;28;20487;-88
2023/07/03 22:17:57;;;;;;;6.10;2.80;;;24.40;72.00;;;;;;4993835;28;20998;-89
2023/07/03 22:20:24;;;;;;;3.10;2.37;;;24.30;71.90;;;;;;4992607;28;20480;-88
2023/07/03 22:22:51;;;;;;;3.23;2.70;;;24.30;71.90;;;;;;4993327;28;20448;-88
2023/07/03 22:25:18;;;;;;;2.57;2.37;;;24.30;72.80;;;;;;4992936;28;20457;-87
2023/07/03 22:27:47;;;;;;;3.03;2.73;;;24.30;71.90;;;;;;4993152;28;20462;-88
2023/07/03 22:30:14;;;;;;;2.77;2.50;;;24.30;71.90;;;;;;4994306;28;20483;-88
2023/07/03 22:32:41;;;;;;;2.60;2.33;;;24.20;71.60;;;;;;4997415;28;20470;-89
2023/07/03 22:35:10;;;;;;;2.90;2.60;;;24.20;71.70;;;;;;4997050;28;20551;-88
2023/07/03 22:37:38;;;;;;;4.17;2.67;;;24.20;71.80;;;;;;4997033;28;20500;-88
2023/07/03 22:40:09;;;;;;;3.40;2.10;;;24.30;71.90;;;;;;4990999;28;20844;-86
2023/07/03 22:42:35;;;;;;;5.53;2.47;;;24.30;71.90;;;;;;4985747;28;20485;-87
2023/07/03 22:45:02;;;;;;;2.73;2.53;;;24.30;71.90;;;;;;4992174;28;20441;-88
2023/07/03 22:47:30;;;;;;;3.83;2.80;;;24.30;71.90;;;;;;4977457;28;20456;-88
2023/07/03 22:49:57;;;;;;;4.00;2.60;;;24.20;72.00;;;;;;4977273;28;20995;-87
2023/07/03 22:52:26;;;;;;;2.40;2.20;;;24.20;71.80;;;;;;4977375;28;20450;-87
2023/07/03 22:54:53;;;;;;;3.00;2.30;;;24.20;71.90;;;;;;4977752;28;20505;-88
2023/07/03 22:57:20;;;;;;;2.53;2.10;;;24.20;71.90;;;;;;4977361;28;20454;-88
2023/07/03 22:59:47;;;;;;;4.03;2.37;;;24.20;71.90;;;;;;4977157;28;20940;-88
2023/07/03 23:02:14;;;;;;;3.80;2.50;;;24.20;71.90;;;;;;4977030;28;20983;-89
2023/07/03 23:04:41;;;;;;;3.10;2.60;;;24.20;71.90;;;;;;4977155;28;20952;-89
2023/07/03 23:07:08;;;;;;;4.00;2.70;;;24.20;71.90;;;;;;4977255;28;20441;-89
2023/07/03 23:09:36;;;;;;;2.90;2.60;;;24.20;71.90;;;;;;4976786;28;20488;-89
2023/07/03 23:12:03;;;;;;;2.43;2.23;;;24.40;72.30;;;;;;4977217;28;20819;-89
2023/07/03 23:14:30;;;;;;;2.70;2.10;;;24.20;72.00;;;;;;4976886;28;20451;-88
2023/07/03 23:16:58;;;;;;;2.97;2.30;;;24.20;72.00;;;;;;4976773;28;20459;-88
2023/07/03 23:19:25;;;;;;;2.27;2.07;;;24.20;72.00;;;;;;4976623;28;20453;-88
2023/07/03 23:21:52;;;;;;;2.53;2.07;;;24.20;71.90;;;;;;4977048;28;20455;-88
2023/07/03 23:24:19;;;;;;;3.03;2.30;;;24.20;71.90;;;;;;4976445;28;20454;-88
2023/07/03 23:26:48;;;;;;;3.00;2.03;;;24.20;72.00;;;;;;4976634;28;20460;-88
2023/07/03 23:29:15;;;;;;;2.70;2.07;;;24.20;72.00;;;;;;4976503;28;20904;-87
2023/07/03 23:31:42;;;;;;;2.80;2.20;;;24.20;72.00;;;;;;4976522;28;20539;-89
2023/07/03 23:34:09;;;;;;;2.07;1.83;;;24.20;71.90;;;;;;4976520;28;20532;-88
2023/07/03 23:36:35;;;;;;;2.00;1.80;;;24.20;72.10;;;;;;4976571;28;20468;-88
2023/07/03 23:39:02;;;;;;;2.50;2.30;;;24.20;71.90;;;;;;4976421;28;20541;-88
2023/07/03 23:41:30;;;;;;;3.33;2.13;;;24.20;72.10;;;;;;4976009;28;20451;-88
2023/07/03 23:43:59;;;;;;;2.87;2.27;;;24.20;72.00;;;;;;4975996;28;20518;-88
2023/07/03 23:46:26;;;;;;;2.77;2.20;;;24.20;72.00;;;;;;4976257;28;20454;-89
2023/07/03 23:48:53;;;;;;;1.83;1.63;;;24.20;72.00;;;;;;4976062;28;20492;-88
2023/07/03 23:51:20;;;;;;;2.47;2.27;;;24.20;72.20;;;;;;4976148;28;20558;-88
2023/07/03 23:53:49;;;;;;;3.73;2.40;;;24.20;72.20;;;;;;4976512;28;20881;-88
2023/07/03 23:56:18;;;;;;;2.30;2.10;;;24.20;72.20;;;;;;4976333;28;20797;-88
2023/07/03 23:58:46;;;;;;;2.27;1.80;;;24.20;72.20;;;;;;4976048;28;20441;-88
